Time;durP1;ratioP1;P1;durP2;ratioP2;P2;SDS_P1;SDS_P2;PMS_P1;PMS_P2;Temp;Humidity;BMP_temperature;BMP_pressure;BME280_temperature;BME280_humidity;BME280_pressure;Samples;Min_cycle;Max_cycle;Signal;HPM_P1;HPM_P2
2022/11/14 00:01:59;;;;;;;;;;;11.90;72.60;;;;;;4958819;29;19974;-82
2022/11/14 00:04:44;;;;;;;;;;;11.80;72.60;;;;;;4958530;29;19929;-80
2022/11/14 00:07:29;;;;;;;;;;;11.80;72.60;;;;;;4943745;29;20482;-80
2022/11/14 00:10:14;;;;;;;;;;;11.80;72.60;;;;;;4958416;29;19921;-81
2022/11/14 00:12:58;;;;;;;;;;;11.80;72.60;;;;;;4957612;29;20284;-81
2022/11/14 00:15:43;;;;;;;;;;;11.80;72.60;;;;;;4957147;29;20399;-81
2022/11/14 00:18:27;;;;;;;;;;;11.70;72.60;;;;;;4957538;29;19921;-82
2022/11/14 00:21:11;;;;;;;;;;;11.70;72.60;;;;;;4956894;29;19965;-82
2022/11/14 00:23:55;;;;;;;;;;;11.70;72.60;;;;;;4957112;29;19929;-82
2022/11/14 00:26:39;;;;;;;;;;;11.60;72.60;;;;;;4956752;29;19929;-81
2022/11/14 00:29:24;;;;;;;;;;;11.60;72.50;;;;;;4957583;29;19961;-82
2022/11/14 00:32:08;;;;;;;;;;;11.60;72.60;;;;;;4956894;29;20375;-81
2022/11/14 00:34:52;;;;;;;;;;;11.60;72.50;;;;;;4943399;29;19970;-82
2022/11/14 00:37:37;;;;;;;;;;;11.50;72.50;;;;;;4956451;29;20323;-82
2022/11/14 00:40:21;;;;;;;;;;;11.50;72.50;;;;;;4943455;29;19924;-83
2022/11/14 00:43:05;;;;;;;;;;;11.50;72.50;;;;;;4957380;29;20411;-81
2022/11/14 00:45:49;;;;;;;;;;;11.50;72.50;;;;;;4957716;29;19985;-81
2022/11/14 00:48:33;;;;;;;;;;;11.50;72.50;;;;;;4956348;29;19929;-81
2022/11/14 00:51:17;;;;;;;;;;;11.40;72.40;;;;;;4957158;28;19978;-81
2022/11/14 00:54:02;;;;;;;;;;;11.40;72.40;;;;;;4942815;29;20025;-82
2022/11/14 00:56:46;;;;;;;;;;;11.40;72.40;;;;;;4956305;29;19965;-82
2022/11/14 00:59:30;;;;;;;;;;;11.40;72.40;;;;;;4956704;29;20431;-82
2022/11/14 01:02:15;;;;;;;;;;;11.30;72.40;;;;;;4956110;29;20300;-82
2022/11/14 01:04:59;;;;;;;;;;;11.30;72.40;;;;;;4942177;29;19938;-80
2022/11/14 01:07:43;;;;;;;;;;;11.30;72.40;;;;;;4942409;29;19965;-82
2022/11/14 01:10:28;;;;;;;;;;;11.30;72.50;;;;;;4957001;29;19936;-81
2022/11/14 01:13:12;;;;;;;;;;;11.30;72.50;;;;;;4942886;29;19925;-81
2022/11/14 01:15:59;;;;;;;;;;;11.20;72.40;;;;;;4956301;29;19962;-81
2022/11/14 01:18:43;;;;;;;;;;;11.20;72.40;;;;;;4955455;29;20014;-81
2022/11/14 01:21:27;;;;;;;;;;;11.20;72.40;;;;;;4956014;29;19925;-82
2022/11/14 01:24:11;;;;;;;;;;;11.20;72.50;;;;;;4956866;29;20065;-81
2022/11/14 01:26:55;;;;;;;;;;;11.20;72.50;;;;;;4955789;29;20326;-81
2022/11/14 01:29:40;;;;;;;;;;;11.10;72.40;;;;;;4955739;29;19928;-81
2022/11/14 01:32:25;;;;;;;;;;;11.10;72.50;;;;;;4942649;29;20044;-81
2022/11/14 01:35:09;;;;;;;;;;;11.10;72.50;;;;;;4956045;29;19977;-82
2022/11/14 01:37:53;;;;;;;;;;;11.10;72.50;;;;;;4955453;29;19924;-82
2022/11/14 01:40:42;;;;;;;;;;;11.00;72.40;;;;;;4956375;29;19926;-81
2022/11/14 01:43:27;;;;;;;;;;;11.00;72.40;;;;;;4957030;29;20407;-84
2022/11/14 01:46:14;;;;;;;;;;;11.00;72.50;;;;;;4956277;29;19925;-80
2022/11/14 01:49:01;;;;;;;;;;;11.00;72.50;;;;;;4956449;29;19921;-81
2022/11/14 01:52:00;;;;;;;;;;;11.00;72.50;;;;;;4956270;29;19922;-81
2022/11/14 01:54:47;;;;;;;;;;;10.90;72.50;;;;;;4956510;29;19964;-82
2022/11/14 01:57:33;;;;;;;;;;;10.90;72.50;;;;;;4955644;29;19928;-81
2022/11/14 02:00:18;;;;;;;;;;;10.90;72.60;;;;;;4955604;29;20013;-81
2022/11/14 02:03:02;;;;;;;;;;;10.90;72.60;;;;;;4956328;28;19921;-80
2022/11/14 02:05:47;;;;;;;;;;;10.80;72.50;;;;;;4956658;29;19973;-80
2022/11/14 02:08:32;;;;;;;;;;;10.80;72.60;;;;;;4956455;29;19938;-81
2022/11/14 02:11:17;;;;;;;;;;;10.70;72.50;;;;;;4956060;29;19925;-80
2022/11/14 02:14:01;;;;;;;;;;;10.80;72.60;;;;;;4955720;29;19965;-81
2022/11/14 02:16:45;;;;;;;;;;;10.80;72.60;;;;;;4955623;29;19925;-81
2022/11/14 02:19:39;;;;;;;;;;;10.70;72.60;;;;;;4955548;29;19973;-83
2022/11/14 02:22:23;;;;;;;;;;;10.70;72.60;;;;;;4955316;29;20008;-81
2022/11/14 02:25:09;;;;;;;;;;;10.70;72.60;;;;;;4954511;29;19926;-81
2022/11/14 02:27:54;;;;;;;;;;;10.70;72.60;;;;;;4955266;29;19961;-81
2022/11/14 02:30:38;;;;;;;;;;;10.60;72.60;;;;;;4954802;29;19984;-81
2022/11/14 02:33:22;;;;;;;;;;;10.60;72.60;;;;;;4956533;29;20308;-81
2022/11/14 02:36:07;;;;;;;;;;;10.60;72.60;;;;;;4956240;29;20371;-81
2022/11/14 02:38:51;;;;;;;;;;;10.50;72.50;;;;;;4955307;29;19925;-81
2022/11/14 02:41:35;;;;;;;;;;;10.50;72.60;;;;;;4955421;29;19961;-81
2022/11/14 02:44:19;;;;;;;;;;;10.50;72.60;;;;;;4955208;29;19933;-81
2022/11/14 02:47:03;;;;;;;;;;;10.50;72.60;;;;;;4954755;29;19973;-80
2022/11/14 02:49:47;;;;;;;;;;;10.50;72.60;;;;;;4956307;29;19925;-82
2022/11/14 02:52:32;;;;;;;;;;;10.40;72.60;;;;;;4954817;29;19925;-82
2022/11/14 02:55:16;;;;;;;;;;;10.40;72.60;;;;;;4955332;29;19921;-82
2022/11/14 02:58:00;;;;;;;;;;;10.40;72.60;;;;;;4955694;29;20381;-80
2022/11/14 03:00:45;;;;;;;;;;;10.40;72.60;;;;;;4954752;29;20047;-81
2022/11/14 03:03:31;;;;;;;;;;;10.40;72.60;;;;;;4954419;29;20323;-80
2022/11/14 03:06:15;;;;;;;;;;;10.40;72.70;;;;;;4954486;29;20017;-82
2022/11/14 03:08:59;;;;;;;;;;;10.30;72.60;;;;;;4941637;29;20075;-81
2022/11/14 03:11:43;;;;;;;;;;;10.30;72.60;;;;;;4955680;29;19926;-81
2022/11/14 03:14:29;;;;;;;;;;;10.30;72.70;;;;;;4954108;28;19938;-81
2022/11/14 03:17:13;;;;;;;;;;;10.30;72.70;;;;;;4959354;29;20013;-82
2022/11/14 03:19:57;;;;;;;;;;;10.20;72.60;;;;;;4957912;29;19926;-82
2022/11/14 03:22:41;;;;;;;;;;;10.20;72.60;;;;;;4958324;29;19926;-81
2022/11/14 03:25:26;;;;;;;;;;;10.20;72.60;;;;;;4943943;29;20039;-82
2022/11/14 03:28:10;;;;;;;;;;;10.20;72.60;;;;;;4944196;29;20029;-81
2022/11/14 03:30:54;;;;;;;;;;;10.20;72.70;;;;;;4958195;29;20258;-81
2022/11/14 03:33:38;;;;;;;;;;;10.10;72.60;;;;;;4958157;29;19965;-82
2022/11/14 03:36:22;;;;;;;;;;;10.10;72.60;;;;;;4959110;29;19970;-81
2022/11/14 03:39:08;;;;;;;;;;;10.10;72.70;;;;;;4958141;29;19978;-82
2022/11/14 03:41:52;;;;;;;;;;;10.10;72.70;;;;;;4959043;29;19972;-81
2022/11/14 03:44:36;;;;;;;;;;;10.10;72.70;;;;;;4958027;29;19976;-82
2022/11/14 03:47:21;;;;;;;;;;;10.10;72.70;;;;;;4957715;29;19940;-81
2022/11/14 03:50:05;;;;;;;;;;;10.00;72.70;;;;;;4959095;29;19922;-81
2022/11/14 03:52:49;;;;;;;;;;;10.00;72.70;;;;;;4958905;29;20043;-81
2022/11/14 03:55:33;;;;;;;;;;;10.00;72.70;;;;;;4943805;29;20303;-80
2022/11/14 03:58:17;;;;;;;;;;;10.00;72.70;;;;;;4957342;29;20440;-81
2022/11/14 04:01:02;;;;;;;;;;;10.00;72.70;;;;;;4957147;29;20013;-81
2022/11/14 04:03:46;;;;;;;;;;;9.90;72.70;;;;;;4958396;29;19926;-82
2022/11/14 04:06:31;;;;;;;;;;;9.90;72.70;;;;;;4943605;29;19925;-81
2022/11/14 04:09:15;;;;;;;;;;;9.90;72.70;;;;;;4957572;29;19926;-81
2022/11/14 04:11:59;;;;;;;;;;;9.90;72.70;;;;;;4957523;29;19926;-82
2022/11/14 04:14:43;;;;;;;;;;;9.90;72.80;;;;;;4943360;29;20344;-80
2022/11/14 04:17:27;;;;;;;;;;;9.90;72.80;;;;;;4957213;29;19930;-82
2022/11/14 04:20:13;;;;;;;;;;;9.80;72.70;;;;;;4957552;29;19922;-82
2022/11/14 04:22:57;;;;;;;;;;;9.80;72.80;;;;;;4957339;29;19961;-81
2022/11/14 04:25:42;;;;;;;;;;;9.80;72.80;;;;;;4942664;28;19945;-81
2022/11/14 04:28:26;;;;;;;;;;;9.80;72.80;;;;;;4958161;29;19986;-82
2022/11/14 04:31:10;;;;;;;;;;;9.80;72.80;;;;;;4943163;29;19925;-81
2022/11/14 04:33:55;;;;;;;;;;;9.70;72.70;;;;;;4943647;29;20018;-81
2022/11/14 04:36:39;;;;;;;;;;;9.70;72.70;;;;;;4957198;29;19981;-82
2022/11/14 04:39:23;;;;;;;;;;;9.70;72.80;;;;;;4957972;29;20312;-81
2022/11/14 04:42:07;;;;;;;;;;;9.70;72.80;;;;;;4956500;29;20284;-81
2022/11/14 04:44:51;;;;;;;;;;;9.70;72.80;;;;;;4958919;29;19930;-81
2022/11/14 04:47:36;;;;;;;;;;;9.70;72.80;;;;;;4962112;29;20029;-81
2022/11/14 04:50:21;;;;;;;;;;;9.70;72.80;;;;;;4960290;29;19922;-81
2022/11/14 04:53:05;;;;;;;;;;;9.60;72.80;;;;;;4959373;29;20017;-80
2022/11/14 04:55:49;;;;;;;;;;;9.60;72.80;;;;;;4946521;29;20327;-82
2022/11/14 04:58:33;;;;;;;;;;;9.60;72.80;;;;;;4958429;29;19973;-81
2022/11/14 05:01:17;;;;;;;;;;;9.60;72.80;;;;;;4943102;29;19926;-81
2022/11/14 05:04:01;;;;;;;;;;;9.60;72.80;;;;;;4956035;29;19970;-81
2022/11/14 05:06:46;;;;;;;;;;;9.60;72.80;;;;;;4956211;29;19925;-80
2022/11/14 05:09:30;;;;;;;;;;;9.50;72.80;;;;;;4956216;29;19965;-81
2022/11/14 05:12:14;;;;;;;;;;;9.50;72.80;;;;;;4956169;29;19925;-81
2022/11/14 05:14:59;;;;;;;;;;;9.50;72.80;;;;;;4956578;29;20370;-81
2022/11/14 05:17:43;;;;;;;;;;;9.40;72.70;;;;;;4942959;29;19938;-81
2022/11/14 05:20:27;;;;;;;;;;;9.40;72.80;;;;;;4942243;29;19969;-81
2022/11/14 05:23:18;;;;;;;;;;;9.40;72.80;;;;;;4956306;29;19941;-82
2022/11/14 05:26:03;;;;;;;;;;;9.40;72.80;;;;;;4955903;29;20374;-81
2022/11/14 05:28:48;;;;;;;;;;;9.40;72.80;;;;;;4956580;29;19926;-80
2022/11/14 05:31:32;;;;;;;;;;;9.40;72.80;;;;;;4956630;29;19970;-80
2022/11/14 05:34:16;;;;;;;;;;;9.40;72.80;;;;;;4956062;29;19921;-80
2022/11/14 05:37:02;;;;;;;;;;;9.40;72.80;;;;;;4956486;28;19940;-80
2022/11/14 05:39:46;;;;;;;;;;;9.30;72.80;;;;;;4956586;29;19985;-81
2022/11/14 05:42:30;;;;;;;;;;;9.30;72.80;;;;;;4955387;29;20432;-80
2022/11/14 05:45:15;;;;;;;;;;;9.30;72.80;;;;;;4955068;29;19924;-81
2022/11/14 05:47:59;;;;;;;;;;;9.30;72.80;;;;;;4942419;29;19930;-80
2022/11/14 05:50:43;;;;;;;;;;;9.30;72.80;;;;;;4955288;29;20428;-82
2022/11/14 05:53:28;;;;;;;;;;;9.30;72.80;;;;;;4941598;29;19969;-80
2022/11/14 05:56:13;;;;;;;;;;;9.20;72.80;;;;;;4955111;29;19973;-81
2022/11/14 05:58:57;;;;;;;;;;;9.30;72.80;;;;;;4956308;29;19921;-81
2022/11/14 06:01:41;;;;;;;;;;;9.20;72.80;;;;;;4955106;29;19921;-82
2022/11/14 06:04:26;;;;;;;;;;;9.20;72.80;;;;;;4941333;29;19933;-81
2022/11/14 06:07:10;;;;;;;;;;;9.20;72.80;;;;;;4941938;29;20089;-80
2022/11/14 06:09:54;;;;;;;;;;;9.20;72.80;;;;;;4956263;29;20017;-82
2022/11/14 06:12:39;;;;;;;;;;;9.20;72.80;;;;;;4954518;29;20011;-80
2022/11/14 06:15:23;;;;;;;;;;;9.20;72.80;;;;;;4954950;29;20010;-82
2022/11/14 06:18:07;;;;;;;;;;;9.10;72.80;;;;;;4954456;29;19965;-81
2022/11/14 06:20:51;;;;;;;;;;;9.10;72.80;;;;;;4954500;29;20025;-82
2022/11/14 06:23:36;;;;;;;;;;;9.10;72.80;;;;;;4954564;29;20050;-82
2022/11/14 06:26:30;;;;;;;;;;;9.10;72.80;;;;;;4956348;29;19978;-81
2022/11/14 06:29:14;;;;;;;;;;;9.10;72.80;;;;;;4955454;29;19961;-81
2022/11/14 06:31:59;;;;;;;;;;;9.10;72.80;;;;;;4941237;29;19973;-81
2022/11/14 06:34:43;;;;;;;;;;;9.00;72.80;;;;;;4941511;29;19969;-81
2022/11/14 06:37:27;;;;;;;;;;;9.00;72.80;;;;;;4954832;29;20407;-81
2022/11/14 06:40:12;;;;;;;;;;;9.00;72.80;;;;;;4941800;29;20317;-81
2022/11/14 06:42:56;;;;;;;;;;;9.00;72.80;;;;;;4941673;29;19925;-81
2022/11/14 06:45:40;;;;;;;;;;;9.00;72.90;;;;;;4954338;29;19980;-81
2022/11/14 06:48:25;;;;;;;;;;;9.00;72.80;;;;;;4955217;29;19926;-80
2022/11/14 06:51:09;;;;;;;;;;;8.90;72.80;;;;;;4958187;29;19965;-81
2022/11/14 06:53:53;;;;;;;;;;;8.90;72.80;;;;;;4945592;29;19961;-82
2022/11/14 06:56:38;;;;;;;;;;;8.90;72.80;;;;;;4945659;29;19925;-81
2022/11/14 06:59:22;;;;;;;;;;;8.90;72.80;;;;;;4958415;29;19964;-81
2022/11/14 07:02:10;;;;;;;;;;;8.90;72.80;;;;;;4958991;29;20019;-81
2022/11/14 07:04:54;;;;;;;;;;;8.90;72.90;;;;;;4958228;29;19929;-82
2022/11/14 07:07:39;;;;;;;;;;;8.80;72.80;;;;;;4959026;29;20308;-80
2022/11/14 07:10:23;;;;;;;;;;;8.80;72.80;;;;;;4944829;29;19933;-81
2022/11/14 07:13:09;;;;;;;;;;;8.80;72.80;;;;;;4958903;29;20327;-81
2022/11/14 07:15:54;;;;;;;;;;;8.80;72.80;;;;;;4945036;29;20428;-81
2022/11/14 07:18:38;;;;;;;;;;;8.80;72.80;;;;;;4958776;29;19921;-81
2022/11/14 07:21:23;;;;;;;;;;;8.80;72.80;;;;;;4945101;29;20275;-82
2022/11/14 07:24:08;;;;;;;;;;;8.80;72.80;;;;;;4944818;29;19925;-82
2022/11/14 07:26:52;;;;;;;;;;;8.70;72.80;;;;;;4944905;29;20043;-82
2022/11/14 07:29:36;;;;;;;;;;;8.70;72.70;;;;;;4958004;29;19925;-83
2022/11/14 07:32:20;;;;;;;;;;;8.70;72.70;;;;;;4944872;29;20390;-82
2022/11/14 07:35:04;;;;;;;;;;;8.70;72.80;;;;;;4958203;29;19973;-82
2022/11/14 07:37:49;;;;;;;;;;;8.70;72.80;;;;;;4958336;29;19961;-83
2022/11/14 07:40:34;;;;;;;;;;;8.70;72.80;;;;;;4958481;29;19949;-84
2022/11/14 07:43:18;;;;;;;;;;;8.70;72.80;;;;;;4958975;29;19922;-83
2022/11/14 07:46:04;;;;;;;;;;;8.70;72.80;;;;;;4958781;29;20017;-83
2022/11/14 07:48:48;;;;;;;;;;;8.60;72.80;;;;;;4959080;29;19925;-82
2022/11/14 07:51:32;;;;;;;;;;;8.60;72.80;;;;;;4944163;29;19973;-83
2022/11/14 07:54:16;;;;;;;;;;;8.60;72.80;;;;;;4960100;29;19925;-83
2022/11/14 07:57:00;;;;;;;;;;;8.60;72.80;;;;;;4958062;29;19925;-82
2022/11/14 07:59:45;;;;;;;;;;;8.60;72.80;;;;;;4958970;29;20489;-82
2022/11/14 08:02:29;;;;;;;;;;;8.60;72.80;;;;;;4944286;29;19969;-83
2022/11/14 08:05:13;;;;;;;;;;;8.60;72.80;;;;;;4958255;29;20410;-83
2022/11/14 08:07:57;;;;;;;;;;;8.60;72.80;;;;;;4957891;29;19925;-82
2022/11/14 08:10:41;;;;;;;;;;;8.60;72.80;;;;;;4958608;29;19921;-83
2022/11/14 08:13:26;;;;;;;;;;;8.60;72.80;;;;;;4958380;29;19940;-83
2022/11/14 08:16:10;;;;;;;;;;;8.60;72.90;;;;;;4958563;29;19921;-84
2022/11/14 08:18:54;;;;;;;;;;;8.50;72.80;;;;;;4957237;29;19965;-82
2022/11/14 08:21:38;;;;;;;;;;;8.50;72.80;;;;;;4957745;29;19926;-82
2022/11/14 08:24:23;;;;;;;;;;;8.50;72.80;;;;;;4956808;29;20068;-82
2022/11/14 08:27:07;;;;;;;;;;;8.50;72.80;;;;;;4957545;29;19958;-81
2022/11/14 08:29:51;;;;;;;;;;;8.50;72.80;;;;;;4956896;29;19921;-81
2022/11/14 08:32:35;;;;;;;;;;;8.50;72.80;;;;;;4957563;29;19974;-82
2022/11/14 08:35:21;;;;;;;;;;;8.50;72.80;;;;;;4957204;29;20060;-82
2022/11/14 08:38:05;;;;;;;;;;;8.50;72.90;;;;;;4957376;29;20046;-82
2022/11/14 08:40:49;;;;;;;;;;;8.50;72.90;;;;;;4956959;29;19945;-82
2022/11/14 08:43:33;;;;;;;;;;;8.50;72.90;;;;;;4957326;29;20271;-81
2022/11/14 08:46:18;;;;;;;;;;;8.50;72.90;;;;;;4957767;29;19926;-83
2022/11/14 08:49:02;;;;;;;;;;;8.50;72.90;;;;;;4958421;29;19925;-82
2022/11/14 08:51:46;;;;;;;;;;;8.50;72.90;;;;;;4956603;29;19962;-82
2022/11/14 08:54:31;;;;;;;;;;;8.50;72.90;;;;;;4943376;29;20013;-83
2022/11/14 08:57:15;;;;;;;;;;;8.50;72.90;;;;;;4956482;29;19926;-82
2022/11/14 08:59:59;;;;;;;;;;;8.50;72.90;;;;;;4943395;29;20378;-82
2022/11/14 09:02:43;;;;;;;;;;;8.50;72.90;;;;;;4957049;29;20358;-81
2022/11/14 09:05:28;;;;;;;;;;;8.50;72.90;;;;;;4956169;29;20063;-83
2022/11/14 09:08:12;;;;;;;;;;;8.50;72.90;;;;;;4957829;29;19969;-82
2022/11/14 09:11:00;;;;;;;;;;;8.50;72.90;;;;;;4956241;29;19969;-83
2022/11/14 09:13:46;;;;;;;;;;;8.50;72.90;;;;;;4956272;28;19918;-81
2022/11/14 09:16:32;;;;;;;;;;;8.60;72.90;;;;;;4956783;29;19926;-81
2022/11/14 09:19:16;;;;;;;;;;;8.60;73.00;;;;;;4956865;29;19988;-82
2022/11/14 09:22:00;;;;;;;;;;;8.60;73.00;;;;;;4942585;29;20275;-83
2022/11/14 09:24:48;;;;;;;;;;;8.60;73.00;;;;;;4956224;29;20391;-82
2022/11/14 09:27:32;;;;;;;;;;;8.60;73.00;;;;;;4956531;29;20358;-81
2022/11/14 09:30:17;;;;;;;;;;;8.60;73.00;;;;;;4942787;29;19981;-83
2022/11/14 09:33:02;;;;;;;;;;;8.60;73.00;;;;;;4956380;29;20295;-82
2022/11/14 09:35:46;;;;;;;;;;;8.60;73.00;;;;;;4957397;29;19921;-82
2022/11/14 09:38:30;;;;;;;;;;;8.70;73.10;;;;;;4955787;29;20305;-83
2022/11/14 09:41:26;;;;;;;;;;;8.70;73.10;;;;;;4955478;29;19925;-81
2022/11/14 09:44:17;;;;;;;;;;;8.70;73.10;;;;;;4956969;29;19925;-82
2022/11/14 09:47:03;;;;;;;;;;;8.70;73.10;;;;;;4956093;29;19989;-81
2022/11/14 09:49:49;;;;;;;;;;;8.70;73.20;;;;;;4955840;29;19974;-86
2022/11/14 09:52:35;;;;;;;;;;;8.70;73.10;;;;;;4956228;29;19922;-80
2022/11/14 09:55:27;;;;;;;;;;;8.80;73.20;;;;;;4955769;29;20398;-83
2022/11/14 09:58:14;;;;;;;;;;;8.80;73.20;;;;;;4957098;29;20359;-84
2022/11/14 10:01:04;;;;;;;;;;;8.80;73.20;;;;;;4955921;29;20009;-82
2022/11/14 10:04:07;;;;;;;;;;;8.80;73.30;;;;;;4955901;29;19922;-82
2022/11/14 10:07:14;;;;;;;;;;;8.80;73.20;;;;;;4955937;29;19970;-82
2022/11/14 10:10:05;;;;;;;;;;;8.80;73.30;;;;;;4956320;28;19969;-82
2022/11/14 10:13:15;;;;;;;;;;;8.80;73.30;;;;;;4955761;29;20030;-81
2022/11/14 10:16:12;;;;;;;;;;;8.90;73.30;;;;;;4956506;29;19925;-81
2022/11/14 10:19:02;;;;;;;;;;;8.90;73.40;;;;;;4956821;29;20255;-82
2022/11/14 10:21:59;;;;;;;;;;;8.90;73.40;;;;;;4955746;29;19921;-82
2022/11/14 10:24:49;;;;;;;;;;;8.90;73.40;;;;;;4955369;28;20452;-82
2022/11/14 10:27:53;;;;;;;;;;;8.90;73.40;;;;;;4955812;29;20398;-82
2022/11/14 10:30:46;;;;;;;;;;;9.00;73.40;;;;;;4955512;29;19922;-82
2022/11/14 10:33:30;;;;;;;;;;;8.90;73.40;;;;;;4955548;29;20363;-81
2022/11/14 10:36:18;;;;;;;;;;;9.00;73.40;;;;;;4955677;29;19969;-82
2022/11/14 10:39:21;;;;;;;;;;;9.00;73.40;;;;;;4955640;29;19969;-82
2022/11/14 10:42:11;;;;;;;;;;;9.00;73.40;;;;;;4954951;29;20017;-83
2022/11/14 10:45:05;;;;;;;;;;;9.00;73.40;;;;;;4956090;29;20255;-80
2022/11/14 10:47:55;;;;;;;;;;;9.00;73.50;;;;;;4954663;29;20005;-79
2022/11/14 10:50:43;;;;;;;;;;;9.10;73.50;;;;;;4956191;29;19925;-81
2022/11/14 10:53:32;;;;;;;;;;;9.10;73.50;;;;;;4956386;29;20006;-84
2022/11/14 10:56:16;;;;;;;;;;;9.10;73.50;;;;;;4956311;29;19921;-84
2022/11/14 10:59:00;;;;;;;;;;;9.10;73.50;;;;;;4956490;29;20078;-84
2022/11/14 11:01:45;;;;;;;;;;;9.20;73.50;;;;;;4942850;29;19926;-82
2022/11/14 11:04:34;;;;;;;;;;;9.20;73.50;;;;;;4956426;29;19959;-83
2022/11/14 11:13:36;;;;;;;;;;;9.20;73.50;;;;;;4956362;29;19922;-83
2022/11/14 11:16:21;;;;;;;;;;;9.20;73.50;;;;;;4955615;29;19925;-83
2022/11/14 11:19:26;;;;;;;;;;;9.30;73.50;;;;;;4956024;29;20404;-83
2022/11/14 11:22:27;;;;;;;;;;;9.30;73.50;;;;;;4956532;29;19925;-83
2022/11/14 11:25:25;;;;;;;;;;;9.30;73.50;;;;;;4956800;29;19942;-84
2022/11/14 11:28:09;;;;;;;;;;;9.30;73.50;;;;;;4956004;29;19937;-83
2022/11/14 11:30:55;;;;;;;;;;;9.40;73.50;;;;;;4955968;29;19921;-83
2022/11/14 11:33:39;;;;;;;;;;;9.40;73.60;;;;;;4956202;29;19922;-83
2022/11/14 11:36:24;;;;;;;;;;;9.40;73.50;;;;;;4956760;28;19922;-83
2022/11/14 11:39:13;;;;;;;;;;;9.40;73.60;;;;;;4958036;29;19925;-82
2022/11/14 11:42:00;;;;;;;;;;;9.50;73.60;;;;;;4958560;29;19921;-83
2022/11/14 11:44:47;;;;;;;;;;;9.50;73.60;;;;;;4958970;29;20292;-81
2022/11/14 11:47:32;;;;;;;;;;;9.50;73.60;;;;;;4958532;29;20415;-81
2022/11/14 11:50:19;;;;;;;;;;;9.50;73.60;;;;;;4958843;29;20452;-84
2022/11/14 11:53:24;;;;;;;;;;;9.60;73.60;;;;;;4959143;29;19922;-85
2022/11/14 11:56:10;;;;;;;;;;;9.60;73.60;;;;;;4959520;29;19920;-84
2022/11/14 11:58:59;;;;;;;;;;;9.70;73.60;;;;;;4959571;29;19921;-84
2022/11/14 12:01:43;;;;;;;;;;;9.70;73.70;;;;;;4958286;29;19921;-84
2022/11/14 12:04:28;;;;;;;;;;;9.70;73.60;;;;;;4959097;29;19973;-80
2022/11/14 12:07:18;;;;;;;;;;;9.80;73.70;;;;;;4958606;29;19969;-82
2022/11/14 12:10:06;;;;;;;;;;;9.80;73.60;;;;;;4957850;29;19921;-81
2022/11/14 12:12:51;;;;;;;;;;;9.80;73.60;;;;;;4958070;29;19922;-82
2022/11/14 12:15:41;;;;;;;;;;;9.80;73.60;;;;;;4957603;29;19961;-82
2022/11/14 12:18:44;;;;;;;;;;;9.90;73.70;;;;;;4957785;29;19976;-83
2022/11/14 12:21:34;;;;;;;;;;;9.90;73.60;;;;;;4958835;29;19981;-82
2022/11/14 12:24:37;;;;;;;;;;;9.90;73.60;;;;;;4958460;29;19937;-82
2022/11/14 12:27:23;;;;;;;;;;;10.00;73.70;;;;;;4957111;29;19926;-81
2022/11/14 12:30:17;;;;;;;;;;;10.00;73.60;;;;;;4958448;29;20343;-81
2022/11/14 12:33:12;;;;;;;;;;;10.00;73.60;;;;;;4957436;29;19922;-81
2022/11/14 12:36:04;;;;;;;;;;;10.10;73.70;;;;;;4957430;29;19965;-81
2022/11/14 12:38:53;;;;;;;;;;;10.10;73.70;;;;;;4956814;29;19922;-80
2022/11/14 12:41:38;;;;;;;;;;;10.10;73.60;;;;;;4957931;29;19921;-80
2022/11/14 12:44:26;;;;;;;;;;;10.10;73.60;;;;;;4956791;29;19925;-82
2022/11/14 12:47:12;;;;;;;;;;;10.20;73.60;;;;;;4957803;28;19929;-81
2022/11/14 12:49:58;;;;;;;;;;;10.20;73.60;;;;;;4956519;29;19921;-80
2022/11/14 12:52:43;;;;;;;;;;;10.20;73.60;;;;;;4956895;29;19922;-79
2022/11/14 12:55:28;;;;;;;;;;;10.20;73.60;;;;;;4956355;29;19921;-80
2022/11/14 12:58:18;;;;;;;;;;;10.20;73.60;;;;;;4956469;29;19921;-80
2022/11/14 13:01:07;;;;;;;;;;;10.30;73.60;;;;;;4956210;29;20049;-80
2022/11/14 13:03:51;;;;;;;;;;;10.30;73.60;;;;;;4956619;29;19921;-80
2022/11/14 13:06:44;;;;;;;;;;;10.30;73.60;;;;;;4956401;29;20013;-81
2022/11/14 13:09:32;;;;;;;;;;;10.30;73.50;;;;;;4957571;29;20016;-81
2022/11/14 13:21:45;;;;;;;;;;;10.40;73.60;;;;;;4956500;29;19934;-80
2022/11/14 13:24:50;;;;;;;;;;;10.40;74.20;;;;;;4957230;29;19934;-80
2022/11/14 13:27:34;;;;;;;;;;;10.50;73.60;;;;;;4947992;29;20372;-80
2022/11/14 13:30:39;;;;;;;;;;;10.40;73.40;;;;;;4955669;29;19926;-80
2022/11/14 13:33:49;;;;;;;;;;;10.50;73.50;;;;;;4955957;28;19924;-80
2022/11/14 13:36:53;;;;;;;;;;;10.50;73.50;;;;;;4956978;29;20355;-80
2022/11/14 13:39:55;;;;;;;;;;;10.50;73.40;;;;;;4956557;29;19917;-79
2022/11/14 13:42:54;;;;;;;;;;;10.60;73.50;;;;;;4957252;29;20295;-79
2022/11/14 13:45:58;;;;;;;;;;;10.60;73.50;;;;;;4958178;29;19945;-80
2022/11/14 13:49:09;;;;;;;;;;;10.60;73.50;;;;;;4958541;29;19949;-80
2022/11/14 13:51:54;;;;;;;;;;;10.60;73.50;;;;;;4958484;29;20032;-80
2022/11/14 13:54:51;;;;;;;;;;;10.60;73.50;;;;;;4959181;29;19921;-79
2022/11/14 13:57:47;;;;;;;;;;;10.70;73.50;;;;;;4957053;29;19921;-79
2022/11/14 14:00:51;;;;;;;;;;;10.70;73.50;;;;;;4958026;29;20018;-80
2022/11/14 14:03:43;;;;;;;;;;;10.70;73.50;;;;;;4958588;29;19993;-79
2022/11/14 14:06:34;;;;;;;;;;;10.70;73.50;;;;;;4957084;29;19945;-79
2022/11/14 14:09:48;;;;;;;;;;;10.70;73.50;;;;;;4955570;29;19966;-79
2022/11/14 14:12:49;;;;;;;;;;;10.70;73.40;;;;;;4942225;28;19921;-79
2022/11/14 14:15:45;;;;;;;;;;;10.80;73.50;;;;;;4956604;29;19921;-80
2022/11/14 14:18:29;;;;;;;;;;;10.80;73.50;;;;;;4955257;29;19925;-79
2022/11/14 14:21:28;;;;;;;;;;;10.80;73.40;;;;;;4956533;29;19921;-80
2022/11/14 14:24:32;;;;;;;;;;;10.80;73.40;;;;;;4956316;29;20371;-80
2022/11/14 14:27:39;;;;;;;;;;;10.80;73.40;;;;;;4955678;29;19973;-79
2022/11/14 14:30:23;;;;;;;;;;;10.80;73.40;;;;;;4954818;29;19922;-82
2022/11/14 14:33:09;;;;;;;;;;;10.80;73.40;;;;;;4955311;29;19922;-80
2022/11/14 14:35:54;;;;;;;;;;;10.90;73.50;;;;;;4957042;29;20124;-80
2022/11/14 14:38:38;;;;;;;;;;;10.90;73.40;;;;;;4955538;29;20319;-80
2022/11/14 14:41:22;;;;;;;;;;;10.90;73.40;;;;;;4955538;29;20411;-79
2022/11/14 14:44:25;;;;;;;;;;;10.90;73.40;;;;;;4955313;29;20342;-79
2022/11/14 14:47:22;;;;;;;;;;;10.90;73.40;;;;;;4955427;29;19930;-81
2022/11/14 14:50:14;;;;;;;;;;;10.90;73.40;;;;;;4955252;29;19921;-80
2022/11/14 14:53:00;;;;;;;;;;;10.90;73.40;;;;;;4956143;29;19922;-80
2022/11/14 14:55:50;;;;;;;;;;;10.90;73.40;;;;;;4956147;29;19968;-81
2022/11/14 14:58:37;;;;;;;;;;;11.00;73.40;;;;;;4955359;29;20375;-80
2022/11/14 15:01:24;;;;;;;;;;;11.00;73.40;;;;;;4955689;29;19961;-81
2022/11/14 15:04:12;;;;;;;;;;;11.00;73.40;;;;;;4955241;29;19926;-80
2022/11/14 15:06:57;;;;;;;;;;;11.00;73.40;;;;;;4955067;29;19929;-81
2022/11/14 15:09:49;;;;;;;;;;;11.00;73.40;;;;;;4955175;28;20024;-80
2022/11/14 15:12:34;;;;;;;;;;;11.00;73.40;;;;;;4958210;29;19930;-80
2022/11/14 15:15:19;;;;;;;;;;;11.00;73.30;;;;;;4958874;29;20362;-80
2022/11/14 15:18:05;;;;;;;;;;;11.00;73.30;;;;;;4958657;29;19969;-81
2022/11/14 15:21:09;;;;;;;;;;;11.00;73.30;;;;;;4958105;29;20034;-80
2022/11/14 15:23:57;;;;;;;;;;;11.00;73.30;;;;;;4959793;29;19937;-79
2022/11/14 15:26:46;;;;;;;;;;;11.00;73.30;;;;;;4959244;29;19920;-80
2022/11/14 15:29:31;;;;;;;;;;;11.00;73.30;;;;;;4958424;29;19966;-81
2022/11/14 15:32:20;;;;;;;;;;;11.10;73.30;;;;;;4957880;29;19926;-80
2022/11/14 15:35:17;;;;;;;;;;;11.00;73.30;;;;;;4958363;29;19922;-78
2022/11/14 15:38:10;;;;;;;;;;;11.10;73.30;;;;;;4958447;29;20370;-79
2022/11/14 15:41:13;;;;;;;;;;;11.10;73.30;;;;;;4957796;29;19921;-82
2022/11/14 15:44:00;;;;;;;;;;;11.10;73.40;;;;;;4958020;29;19922;-80
2022/11/14 15:46:48;;;;;;;;;;;11.10;73.30;;;;;;4959019;29;19922;-81
2022/11/14 15:49:32;;;;;;;;;;;11.10;73.30;;;;;;4957972;29;20370;-80
2022/11/14 15:52:31;;;;;;;;;;;11.10;73.30;;;;;;4959062;29;19969;-83
2022/11/14 15:55:17;;;;;;;;;;;11.10;73.30;;;;;;4958649;29;19921;-82
2022/11/14 15:58:02;;;;;;;;;;;11.10;73.30;;;;;;4957519;29;19970;-82
2022/11/14 16:00:50;;;;;;;;;;;11.10;73.30;;;;;;4957506;29;19922;-82
2022/11/14 16:03:34;;;;;;;;;;;11.10;73.30;;;;;;4957816;29;20443;-82
2022/11/14 16:06:19;;;;;;;;;;;11.10;73.30;;;;;;4957811;29;20057;-81
2022/11/14 16:09:03;;;;;;;;;;;11.10;73.30;;;;;;4944274;29;20013;-81
2022/11/14 16:11:47;;;;;;;;;;;11.10;73.30;;;;;;4944455;29;20279;-81
2022/11/14 16:14:31;;;;;;;;;;;11.10;73.30;;;;;;4957695;29;19922;-80
2022/11/14 16:17:16;;;;;;;;;;;11.10;73.30;;;;;;4957257;29;20327;-81
2022/11/14 16:20:02;;;;;;;;;;;11.10;73.30;;;;;;4957149;29;20284;-79
2022/11/14 16:22:47;;;;;;;;;;;11.10;73.30;;;;;;4956566;28;20057;-80
2022/11/14 16:25:32;;;;;;;;;;;11.10;73.30;;;;;;4962438;29;19925;-78
2022/11/14 16:28:19;;;;;;;;;;;11.10;73.30;;;;;;4962643;29;19952;-80
2022/11/14 16:31:09;;;;;;;;;;;11.10;73.30;;;;;;4964907;29;19957;-79
2022/11/14 16:34:07;;;;;;;;;;;11.10;73.30;;;;;;4968122;29;19922;-83
2022/11/14 16:43:52;;;;;;;;;;;11.10;73.30;;;;;;4957880;28;20291;-80